< < Back
Terminal Aerodrome Forecast


Current Version              Previous Versions:   1  2  3  4  5  6  7  8  9  

Terminal Aerodrome Forecast

113
FTUS42 KFFC 291100
TAFFTY
TAF
KFTY 291120Z 2912/3012 32006KT P6SM SKC
     FM291600 32008G16KT P6SM SCT050
     FM300000 32005KT P6SM SKC=



Latest METAR

802
SAUS70 KWBC 300500 RRK
MTRFTY
METAR KFTY 300453Z 00000KT 10SM CLR 19/12 A3004 RMK AO2 SLP164 T01940117
402780183


USA.gov is the U.S. government's official web portal to all federal, state and local government web resources and services.